Time;durP1;ratioP1;P1;durP2;ratioP2;P2;SDS_P1;SDS_P2;PMS_P1;PMS_P2;Temp;Humidity;BMP_temperature;BMP_pressure;BME280_temperature;BME280_humidity;BME280_pressure;Samples;Min_cycle;Max_cycle;Signal;HPM_P1;HPM_P2
2022/02/02 00:03:56;;;;;;;64.93;10.57;;;;;;;6.85;100.00;101369.34;10457772;28;20508;-57
2022/02/02 00:09:03;;;;;;;49.35;10.60;;;;;;;6.86;100.00;101367.63;10457665;28;20128;-58
2022/02/02 00:29:34;;;;;;;47.10;7.95;;;;;;;6.76;100.00;101366.19;10456963;28;20052;-58
2022/02/02 00:34:37;;;;;;;55.55;10.60;;;;;;;6.70;100.00;101370.69;10457384;28;20128;-57
2022/02/02 00:39:39;;;;;;;44.70;9.68;;;;;;;6.75;100.00;101388.78;10459901;28;20053;-57
2022/02/02 00:44:46;;;;;;;44.20;10.43;;;;;;;6.70;100.00;101396.72;10456666;28;20049;-59
2022/02/02 00:49:50;;;;;;;48.90;9.80;;;;;;;6.81;100.00;101390.34;10456867;28;20086;-56
2022/02/02 00:54:52;;;;;;;54.78;8.35;;;;;;;6.93;100.00;101389.09;10456893;28;20075;-57
2022/02/02 00:59:57;;;;;;;57.72;11.25;;;;;;;6.87;100.00;101385.75;10456487;28;20053;-56
2022/02/02 01:04:59;;;;;;;52.30;12.25;;;;;;;6.98;100.00;101390.63;10456069;28;20493;-56
2022/02/02 01:10:16;;;;;;;62.03;9.38;;;;;;;6.94;100.00;101393.38;10455935;28;20482;-57
2022/02/02 01:31:15;;;;;;;43.47;10.13;;;;;;;6.96;100.00;101394.19;10455726;28;20045;-58
2022/02/02 01:36:18;;;;;;;51.05;9.23;;;;;;;6.97;100.00;101388.91;10455702;28;20092;-58
2022/02/02 01:41:27;;;;;;;50.00;11.43;;;;;;;6.85;100.00;101405.78;10462870;28;20060;-58
2022/02/02 01:46:32;;;;;;;48.10;9.05;;;;;;;6.79;100.00;101420.75;10463320;28;20055;-57
2022/02/02 01:56:37;;;;;;;51.13;10.13;;;;;;;6.79;100.00;101424.22;10463379;28;20136;-58
2022/02/02 02:01:39;;;;;;;47.22;9.05;;;;;;;6.60;100.00;101436.09;10467283;28;20060;-56
2022/02/02 02:06:42;;;;;;;45.00;9.60;;;;;;;6.69;100.00;101467.03;10466380;28;20090;-59
2022/02/02 02:12:02;;;;;;;50.80;10.70;;;;;;;6.52;100.00;101464.94;10463018;28;20049;-57
2022/02/02 02:17:05;;;;;;;57.50;9.40;;;;;;;6.58;100.00;101435.28;10462059;28;20390;-57
2022/02/02 02:22:10;;;;;;;44.42;9.43;;;;;;;6.57;100.00;101425.78;10460708;28;20498;-58
2022/02/02 02:27:16;;;;;;;49.47;10.65;;;;;;;6.53;100.00;101431.97;10463339;28;20045;-57
2022/02/02 02:59:08;;;;;;;42.28;8.82;;;;;;;6.46;100.00;101431.31;10460359;28;20409;-55
2022/02/02 04:02:45;;;;;;;43.95;10.13;;;;;;;6.66;100.00;101465.38;10457239;28;20397;-58
2022/02/02 04:07:53;;;;;;;51.58;9.65;;;;;;;6.67;100.00;101480.09;10459895;28;20481;-58
2022/02/02 04:55:47;;;;;;;48.33;8.68;;;;;;;6.90;100.00;101498.53;10457019;28;20064;-59
2022/02/02 05:11:46;;;;;;;59.78;9.35;;;;;;;6.87;100.00;101518.50;10457538;28;20041;-58
2022/02/02 05:17:13;;;;;;;47.95;10.40;;;;;;;6.87;100.00;101531.53;10464852;28;20060;-59
2022/02/02 05:54:17;;;;;;;37.97;8.65;;;;;;;6.83;100.00;101565.53;10412429;28;20052;-58
2022/02/02 05:59:21;;;;;;;40.55;6.80;;;;;;;6.86;100.00;101579.31;10462834;28;20056;-58
2022/02/02 06:04:26;;;;;;;51.33;9.88;;;;;;;6.85;100.00;101568.94;10462719;28;20056;-55
2022/02/02 06:09:35;;;;;;;43.60;7.95;;;;;;;6.77;100.00;101578.72;10465073;28;20055;-56
2022/02/02 06:14:40;;;;;;;43.95;9.63;;;;;;;6.73;100.00;101582.31;10462257;28;20406;-59
2022/02/02 06:19:42;;;;;;;46.03;8.98;;;;;;;6.66;100.00;101592.88;10461122;28;20075;-57
2022/02/02 06:24:56;;;;;;;39.78;8.35;;;;;;;6.58;100.00;101588.81;10461710;28;20044;-57
2022/02/02 06:30:05;;;;;;;47.90;8.23;;;;;;;6.56;100.00;101591.44;10461736;28;20052;-54
2022/02/02 06:35:08;;;;;;;53.03;8.57;;;;;;;6.55;100.00;101591.47;10462039;28;20063;-57
2022/02/02 06:40:11;;;;;;;43.58;8.43;;;;;;;6.55;100.00;101588.88;10459644;28;20060;-54
2022/02/02 06:45:14;;;;;;;31.48;7.22;;;;;;;6.50;100.00;101620.22;10461046;28;20053;-58
2022/02/02 06:50:29;;;;;;;38.35;7.63;;;;;;;6.42;100.00;101617.84;10461671;28;20053;-58
2022/02/02 06:55:41;;;;;;;48.20;9.50;;;;;;;6.37;100.00;101627.53;10460942;28;20059;-56
2022/02/02 07:00:56;;;;;;;41.47;7.28;;;;;;;6.39;100.00;101624.84;10460571;28;20374;-59
2022/02/02 07:31:46;;;;;;;33.63;6.32;;;;;;;6.35;100.00;101673.50;10461542;28;20053;-56
2022/02/02 07:36:53;;;;;;;42.08;6.63;;;;;;;6.35;100.00;101676.09;10458289;28;20045;-57
2022/02/02 07:42:00;;;;;;;41.88;6.32;;;;;;;6.23;100.00;101679.03;10459674;28;20049;-55
2022/02/02 07:47:07;;;;;;;33.15;5.97;;;;;;;6.30;100.00;101703.97;10457826;28;20060;-57
2022/02/02 07:52:11;;;;;;;38.55;6.22;;;;;;;6.35;100.00;101706.47;10458311;28;20382;-58
2022/02/02 07:57:19;;;;;;;35.47;7.30;;;;;;;6.46;100.00;101710.50;10458070;28;20048;-57
2022/02/02 08:02:30;;;;;;;47.15;7.00;;;;;;;6.51;100.00;101719.06;10458158;28;20481;-58
2022/02/02 08:07:39;;;;;;;51.65;7.38;;;;;;;6.76;100.00;101723.63;10457782;28;20489;-56
2022/02/02 08:12:51;;;;;;;43.00;9.40;;;;;;;6.66;100.00;101717.81;10458189;28;20406;-59
2022/02/02 08:17:55;;;;;;;43.53;7.15;;;;;;;6.63;100.00;101730.88;10457535;28;20413;-59
2022/02/02 08:22:57;;;;;;;44.53;7.57;;;;;;;6.62;100.00;101743.94;10457359;28;20474;-59
2022/02/02 08:28:04;;;;;;;44.60;7.65;;;;;;;6.56;100.00;101750.16;10457214;28;20075;-55
2022/02/02 08:33:12;;;;;;;54.80;9.70;;;;;;;6.62;100.00;101763.03;10456580;28;20049;-56
2022/02/02 08:43:36;;;;;;;37.83;8.25;;;;;;;6.61;100.00;101781.28;10456664;28;20413;-56
2022/02/02 08:48:42;;;;;;;52.72;9.35;;;;;;;6.80;100.00;101784.25;10456769;28;20045;-59
2022/02/02 08:59:08;;;;;;;45.67;8.93;;;;;;;6.88;100.00;101787.53;10456760;28;20041;-57
2022/02/02 09:20:25;;;;;;;54.70;10.10;;;;;;;9.50;97.93;101800.22;10455913;28;20396;-57
2022/02/02 09:25:41;;;;;;;53.15;10.73;;;;;;;7.72;100.00;101799.13;10456055;28;20048;-59
2022/02/02 09:36:08;;;;;;;40.83;7.72;;;;;;;7.73;100.00;101832.09;10456573;28;20099;-56
2022/02/02 09:42:15;;;;;;;45.05;9.02;;;;;;;7.51;100.00;101844.88;10456369;28;20132;-59
2022/02/02 09:47:34;;;;;;;56.60;12.02;;;;;;;7.56;100.00;101851.66;10450943;28;20045;-57
2022/02/02 09:52:15;;;;;;;46.50;8.75;;;;;;;7.75;100.00;101854.63;10452431;28;20511;-57
2022/02/02 10:03:20;;;;;;;43.10;9.65;;;;;;;9.33;100.00;101883.59;10462930;28;20052;-58
2022/02/02 10:14:13;;;;;;;41.97;7.63;;;;;;;10.10;94.49;101862.50;10465272;28;20071;-58
2022/02/02 10:19:20;;;;;;;59.17;9.77;;;;;;;11.48;85.79;101876.97;10462442;28;20047;-57
2022/02/02 10:24:41;;;;;;;47.00;10.10;;;;;;;12.49;84.21;101887.25;10462286;28;20055;-58
2022/02/02 10:29:43;;;;;;;40.92;9.30;;;;;;;12.67;83.04;101889.91;10461347;28;20503;-58
2022/02/02 10:34:46;;;;;;;40.88;10.05;;;;;;;11.37;81.86;101894.94;10460767;28;20409;-58
2022/02/02 10:39:49;;;;;;;46.95;8.35;;;;;;;11.19;86.73;101928.88;10461475;28;20371;-59
2022/02/02 10:44:57;;;;;;;34.80;7.25;;;;;;;11.41;82.37;101941.94;10461055;28;20493;-57
2022/02/02 10:50:40;;;;;;;34.53;8.10;;;;;;;11.47;84.74;101936.44;10459896;28;20101;-58
2022/02/02 10:56:05;;;;;;;;;;;;;;;11.58;88.56;101942.97;10463061;28;20059;-57
2022/02/02 11:11:52;;;;;;;37.22;8.25;;;;;;;10.14;89.97;101948.69;10458769;28;20048;-58
2022/02/02 11:17:02;;;;;;;31.38;6.93;;;;;;;10.45;89.43;101946.72;10460309;28;20071;-59
2022/02/02 11:22:21;;;;;;;30.25;7.32;;;;;;;10.65;83.63;101944.16;10459802;28;20397;-58
2022/02/02 11:27:44;;;;;;;34.08;6.80;;;;;;;10.23;85.87;101950.09;10459412;28;20568;-58
2022/02/02 11:32:47;;;;;;;;;;;;;;;10.68;88.67;101956.31;10459794;28;20049;-59
2022/02/02 11:37:58;;;;;;;27.77;5.82;;;;;;;11.15;81.24;101954.38;10461139;28;19924;-59
2022/02/02 11:43:09;;;;;;;;;;;;;;;9.52;85.44;101965.72;10459168;28;20052;-59
2022/02/02 11:48:19;;;;;;;32.67;6.00;;;;;;;9.35;89.05;101973.28;10458588;28;19944;-58
2022/02/02 11:53:55;;;;;;;29.13;5.25;;;;;;;9.75;90.40;101975.41;10458437;28;20485;-59
2022/02/02 11:58:59;;;;;;;32.40;7.53;;;;;;;9.52;90.15;101963.09;10457979;28;20428;-58
2022/02/02 12:04:21;;;;;;;28.60;7.57;;;;;;;9.53;89.82;101953.50;10456946;28;20045;-59
2022/02/02 12:09:36;;;;;;;;;;;;;;;10.03;87.20;101950.84;10458349;28;20374;-59
2022/02/02 12:57:23;;;;;;;21.40;5.33;;;;;;;8.83;86.02;101939.28;10456691;28;20060;-61
2022/02/02 13:02:26;;;;;;;25.13;5.82;;;;;;;9.10;84.64;101945.34;10456969;28;20405;-61
2022/02/02 13:07:30;;;;;;;18.88;5.20;;;;;;;8.71;87.71;101937.91;10456895;28;20056;-62
2022/02/02 13:12:42;;;;;;;31.45;7.20;;;;;;;8.68;87.40;101933.63;10455288;28;20151;-61
2022/02/02 13:17:55;;;;;;;33.33;6.10;;;;;;;8.96;84.67;101932.75;10456501;28;20049;-61
2022/02/02 13:23:09;;;;;;;24.95;5.15;;;;;;;8.81;82.08;101926.25;10456080;28;20049;-61
2022/02/02 13:28:12;;;;;;;27.02;5.40;;;;;;;9.57;79.48;101934.19;10456213;28;20132;-61
2022/02/02 13:33:25;;;;;;;15.98;4.72;;;;;;;9.76;76.86;101929.16;10458384;28;20052;-61
2022/02/02 13:39:09;;;;;;;23.65;5.43;;;;;;;9.84;75.19;101927.97;10464228;28;20049;-61
2022/02/02 13:44:25;;;;;;;20.50;4.82;;;;;;;9.19;80.71;101939.81;10464944;28;20049;-61
2022/02/02 13:55:30;;;;;;;25.33;5.55;;;;;;;10.03;79.75;101943.00;10444270;28;20048;-62
2022/02/02 14:00:49;;;;;;;24.13;5.43;;;;;;;9.35;78.31;101947.16;10463097;28;20052;-62
2022/02/02 14:06:16;;;;;;;27.02;6.32;;;;;;;9.54;79.31;101948.22;10462662;28;20517;-62
2022/02/02 14:11:48;;;;;;;25.13;5.55;;;;;;;9.15;82.06;101963.50;10462387;28;20047;-61
2022/02/02 14:32:55;;;;;;;21.70;5.07;;;;;;;9.07;81.95;101977.66;10461684;28;20396;-62
2022/02/02 14:37:59;;;;;;;29.58;5.45;;;;;;;9.13;82.34;101976.59;10461566;28;20056;-61
2022/02/02 14:43:04;;;;;;;28.95;5.75;;;;;;;8.88;84.36;101984.38;10461255;28;20049;-62
2022/02/02 14:48:15;;;;;;;25.77;5.82;;;;;;;9.32;83.47;101973.41;10460610;28;20052;-57
2022/02/02 14:53:33;;;;;;;20.53;4.23;;;;;;;9.41;83.04;101970.44;10460878;28;20052;-57
2022/02/02 15:31:00;;;;;;;14.77;4.38;;;;;;;8.64;84.51;102004.25;10460473;28;20049;-56
2022/02/02 15:41:36;;;;;;;14.18;4.10;;;;;;;8.34;87.79;102007.69;10459129;28;20063;-59
2022/02/02 16:07:31;;;;;;;17.55;4.63;;;;;;;7.69;94.68;102015.56;10458154;28;20049;-58
2022/02/02 16:12:43;;;;;;;23.08;4.90;;;;;;;7.56;96.20;102018.44;10458414;28;20135;-57
2022/02/02 16:18:07;;;;;;;20.80;5.03;;;;;;;7.33;97.71;102024.25;10457786;28;20061;-58
2022/02/02 16:39:22;;;;;;;22.77;4.80;;;;;;;6.44;100.00;102024.50;10457279;28;20053;-57
2022/02/02 16:44:24;;;;;;;28.75;5.85;;;;;;;6.39;100.00;102020.25;10457057;28;20059;-58
2022/02/02 16:49:27;;;;;;;23.42;5.07;;;;;;;6.23;100.00;102017.09;10457238;28;20060;-58
2022/02/02 16:54:35;;;;;;;33.25;6.28;;;;;;;6.36;100.00;102013.38;10456584;28;20045;-58
2022/02/02 17:32:02;;;;;;;27.73;5.78;;;;;;;6.37;100.00;102027.22;10464425;28;20056;-56
2022/02/02 18:12:21;;;;;;;26.25;5.15;;;;;;;5.76;100.00;102064.69;10462607;28;20048;-57
2022/02/02 18:19:31;;;;;;;23.77;6.22;;;;;;;5.91;100.00;102054.94;10461389;28;20053;-55
2022/02/02 18:24:48;;;;;;;22.05;5.80;;;;;;;5.97;100.00;102056.59;10462182;28;20049;-54
2022/02/02 18:30:06;;;;;;;34.35;6.47;;;;;;;6.32;100.00;102067.22;10462243;28;20045;-54
2022/02/02 18:35:14;;;;;;;31.33;8.20;;;;;;;6.08;100.00;102060.72;10471821;28;20048;-56
2022/02/02 18:56:01;;;;;;;30.50;13.05;;;;;;;6.84;100.00;102065.31;10461423;28;20045;-56
2022/02/02 20:10:25;;;;;;;28.35;15.57;;;;;;;7.51;100.00;102019.47;10458312;28;20148;-55
2022/02/02 20:15:24;;;;;;;23.45;13.05;;;;;;;7.36;100.00;102018.97;10457758;28;20145;-58
2022/02/02 20:20:27;;;;;;;26.05;13.63;;;;;;;7.33;100.00;102021.66;10457241;28;20044;-58
2022/02/02 20:25:29;;;;;;;24.55;12.95;;;;;;;7.34;100.00;102028.56;10456570;28;20584;-56
2022/02/02 20:30:36;;;;;;;25.80;15.15;;;;;;;7.29;100.00;102024.34;10457943;28;20049;-58
2022/02/02 20:35:38;;;;;;;28.55;16.90;;;;;;;7.43;100.00;102024.88;10457148;28;20053;-56
2022/02/02 20:40:41;;;;;;;26.67;16.73;;;;;;;7.42;100.00;102026.63;10456869;28;20516;-57
2022/02/02 20:46:06;;;;;;;34.30;18.45;;;;;;;7.41;100.00;102027.53;10456521;28;20045;-54
2022/02/02 21:07:47;;;;;;;32.63;20.23;;;;;;;7.57;100.00;102019.34;10456536;28;20049;-53
2022/02/02 21:18:20;;;;;;;51.25;27.02;;;;;;;7.71;100.00;102018.97;10456340;28;20059;-56
2022/02/02 21:28:25;;;;;;;47.78;24.13;;;;;;;7.73;100.00;102030.22;10456828;28;20057;-57
2022/02/02 21:33:28;;;;;;;56.63;27.48;;;;;;;7.77;100.00;102027.50;10456476;28;20041;-56
2022/02/02 21:38:38;;;;;;;52.42;26.63;;;;;;;7.80;100.00;102050.88;10455966;28;20053;-56
2022/02/02 21:43:40;;;;;;;55.22;24.00;;;;;;;7.73;100.00;102043.25;10455278;28;20056;-57
2022/02/02 21:48:44;;;;;;;55.55;27.77;;;;;;;7.80;100.00;102042.19;10455476;28;20071;-55
2022/02/02 21:53:47;;;;;;;53.50;27.38;;;;;;;7.88;100.00;102036.78;10457770;28;20049;-52
2022/02/02 21:58:50;;;;;;;50.88;25.95;;;;;;;7.96;100.00;102027.84;10463332;28;20053;-56
2022/02/02 22:03:52;;;;;;;55.25;29.13;;;;;;;7.97;100.00;102023.50;10462764;28;20053;-57
2022/02/02 22:08:54;;;;;;;60.03;30.88;;;;;;;7.92;100.00;102021.03;10463741;28;20049;-57
2022/02/02 22:14:12;;;;;;;63.75;30.75;;;;;;;7.92;100.00;102022.78;10462475;28;20079;-56
2022/02/02 22:19:15;;;;;;;69.43;33.13;;;;;;;7.97;100.00;102020.91;10461380;28;20076;-57
2022/02/02 22:24:18;;;;;;;59.95;28.70;;;;;;;7.98;100.00;102015.66;10460902;28;20045;-57
2022/02/02 22:29:20;;;;;;;52.28;28.63;;;;;;;7.95;100.00;102026.16;10461531;28;20378;-58
2022/02/02 22:34:22;;;;;;;77.78;35.67;;;;;;;7.83;100.00;102023.84;10460765;28;20378;-58
2022/02/02 22:39:26;;;;;;;58.40;31.52;;;;;;;7.96;100.00;102011.34;10461488;28;20060;-56
2022/02/02 22:44:31;;;;;;;63.33;31.88;;;;;;;7.94;100.00;102006.19;10461406;28;20052;-57
2022/02/02 22:49:36;;;;;;;60.33;33.20;;;;;;;8.02;100.00;102005.09;10463292;28;20049;-56
2022/02/02 22:54:40;;;;;;;58.60;32.33;;;;;;;7.97;100.00;102005.25;10461471;28;20052;-57
2022/02/02 22:59:46;;;;;;;60.00;34.38;;;;;;;8.00;100.00;102016.47;10461394;28;20057;-58
2022/02/02 23:04:49;;;;;;;54.60;33.60;;;;;;;7.94;100.00;102018.38;10459992;28;20041;-58
2022/02/02 23:09:52;;;;;;;41.78;26.42;;;;;;;7.92;100.00;102025.38;10460441;28;20049;-57
2022/02/02 23:14:58;;;;;;;56.92;33.95;;;;;;;7.87;100.00;102020.28;10459661;28;20063;-58
2022/02/02 23:20:00;;;;;;;67.30;37.28;;;;;;;7.94;100.00;102015.78;10459836;28;20060;-58
2022/02/02 23:25:08;;;;;;;51.60;32.53;;;;;;;7.89;100.00;102021.09;10460433;28;20053;-58
2022/02/02 23:30:13;;;;;;;54.97;34.35;;;;;;;7.89;100.00;102017.66;10459211;28;20048;-58
2022/02/02 23:35:16;;;;;;;65.15;39.33;;;;;;;7.94;100.00;102014.00;10461398;28;20051;-57
2022/02/02 23:40:19;;;;;;;58.28;38.08;;;;;;;8.00;100.00;102008.63;10458082;28;20057;-58
2022/02/02 23:45:23;;;;;;;65.45;38.25;;;;;;;7.94;100.00;102003.56;10458894;28;20056;-57
2022/02/02 23:50:26;;;;;;;61.38;37.63;;;;;;;8.02;100.00;102000.78;10458605;28;20497;-59
2022/02/02 23:55:33;;;;;;;62.22;41.30;;;;;;;7.98;100.00;102000.00;10457322;28;20476;-58
